createdAt,value
2023-01-28T00:01:37.054Z,7.60
2023-01-28T00:04:10.480Z,7.43
2023-01-28T00:06:41.240Z,7.82
2023-01-28T00:09:14.490Z,7.68
2023-01-28T00:11:45.405Z,7.13
2023-01-28T00:14:16.515Z,8.15
2023-01-28T00:16:47.240Z,7.65
2023-01-28T00:19:20.545Z,8.25
2023-01-28T00:21:51.277Z,8.15
2023-01-28T00:24:22.142Z,8.32
2023-01-28T00:26:52.953Z,7.93
2023-01-28T00:29:26.439Z,8.73
2023-01-28T00:31:57.401Z,7.82
2023-01-28T00:34:31.686Z,8.77
2023-01-28T00:37:02.431Z,8.18
2023-01-28T00:39:33.309Z,8.43
2023-01-28T00:42:04.313Z,9.80
2023-01-28T00:44:35.013Z,8.40
2023-01-28T00:47:07.813Z,8.63
2023-01-28T00:49:41.330Z,9.15
2023-01-28T00:52:12.182Z,9.15
2023-01-28T00:54:42.901Z,8.60
2023-01-28T00:57:16.416Z,8.53
2023-01-28T00:59:47.309Z,9.33
2023-01-28T01:02:18.070Z,9.10
2023-01-28T01:05:01.220Z,8.80
2023-01-28T01:07:41.905Z,8.40
2023-01-28T01:10:14.559Z,9.03
2023-01-28T01:12:46.049Z,8.23
2023-01-28T01:15:17.169Z,8.35
2023-01-28T01:17:53.214Z,9.18
2023-01-28T01:20:29.310Z,9.15
2023-01-28T01:23:00.058Z,8.20
2023-01-28T01:25:30.931Z,8.85
2023-01-28T01:28:01.659Z,9.30
2023-01-28T01:30:33.015Z,9.23
2023-01-28T01:33:03.817Z,9.52
2023-01-28T01:35:37.433Z,8.40
2023-01-28T01:38:08.548Z,7.82
2023-01-28T01:40:39.619Z,7.43
2023-01-28T01:43:19.502Z,7.53
2023-01-28T01:45:53.537Z,7.63
2023-01-28T01:48:27.831Z,7.32
2023-01-28T01:51:06.361Z,7.37
2023-01-28T01:53:38.110Z,6.97
2023-01-28T01:56:11.979Z,8.40
2023-01-28T01:58:46.795Z,7.77
2023-01-28T02:01:17.743Z,7.40
2023-01-28T02:03:58.204Z,7.43
2023-01-28T02:06:33.005Z,8.27
2023-01-28T02:09:03.896Z,7.80
2023-01-28T02:11:36.662Z,7.70
2023-01-28T02:14:19.439Z,8.10
2023-01-28T02:16:57.180Z,7.67
2023-01-28T02:19:31.960Z,8.50
2023-01-28T02:22:29.536Z,8.80
2023-01-28T02:25:21.146Z,8.50
2023-01-28T02:28:10.920Z,8.30
2023-01-28T02:30:45.725Z,8.30
2023-01-28T02:33:21.154Z,7.70
2023-01-28T02:35:56.049Z,7.93
2023-01-28T02:38:37.300Z,7.93
2023-01-28T02:41:11.534Z,8.43
2023-01-28T02:43:46.688Z,8.52
2023-01-28T02:46:36.039Z,8.80
2023-01-28T02:49:11.271Z,10.00
2023-01-28T02:51:55.663Z,9.15
2023-01-28T02:54:35.332Z,8.93
2023-01-28T02:57:15.555Z,7.20
2023-01-28T02:59:54.633Z,7.80
2023-01-28T03:02:33.406Z,7.78
2023-01-28T03:05:14.416Z,6.88
2023-01-28T03:07:46.253Z,6.50
2023-01-28T03:10:18.662Z,5.88
2023-01-28T03:13:05.850Z,6.72
2023-01-28T03:15:56.238Z,8.02
2023-01-28T03:18:43.062Z,7.47
2023-01-28T03:21:30.593Z,7.30
2023-01-28T03:24:16.439Z,6.68
2023-01-28T03:27:09.628Z,6.63
2023-01-28T03:29:54.897Z,7.60
2023-01-28T03:32:41.119Z,6.97
2023-01-28T03:35:29.230Z,7.47
2023-01-28T03:40:58.418Z,7.90
2023-01-28T03:43:29.590Z,8.32
2023-01-28T03:46:00.914Z,8.73
2023-01-28T03:48:35.128Z,9.60
2023-01-28T03:51:08.147Z,8.80
2023-01-28T03:53:39.437Z,9.30
2023-01-28T03:56:18.591Z,9.70
2023-01-28T03:58:52.838Z,8.80
2023-01-28T04:01:24.416Z,9.40
2023-01-28T04:03:58.350Z,10.38
2023-01-28T04:06:29.141Z,11.95
2023-01-28T04:09:00.042Z,12.32
2023-01-28T04:11:30.828Z,10.98
2023-01-28T04:14:01.651Z,10.57
2023-01-28T04:16:32.700Z,10.80
2023-01-28T04:19:06.223Z,11.00
2023-01-28T04:21:37.053Z,10.20
2023-01-28T04:24:08.531Z,10.82
2023-01-28T04:26:40.141Z,10.27
2023-01-28T04:29:13.942Z,10.20
2023-01-28T04:31:44.760Z,10.00
2023-01-28T04:34:21.198Z,10.25
2023-01-28T04:36:51.962Z,10.68
2023-01-28T04:39:22.664Z,9.40
2023-01-28T04:41:56.284Z,10.27
2023-01-28T04:44:29.258Z,10.15
2023-01-28T04:47:00.021Z,10.52
2023-01-28T04:49:33.453Z,9.85
2023-01-28T04:52:04.140Z,10.85
2023-01-28T04:54:34.890Z,10.38
2023-01-28T04:57:08.868Z,10.45
2023-01-28T04:59:42.487Z,10.40
2023-01-28T05:02:13.356Z,10.55
2023-01-28T05:04:48.962Z,10.43
2023-01-28T05:07:19.819Z,10.55
2023-01-28T05:09:50.602Z,12.05
2023-01-28T05:12:21.319Z,11.68
2023-01-28T05:14:52.129Z,12.55
2023-01-28T05:17:23.005Z,13.52
2023-01-28T05:19:59.116Z,13.95
2023-01-28T05:22:30.302Z,14.90
2023-01-28T05:25:06.380Z,13.90
2023-01-28T05:27:37.955Z,13.05
2023-01-28T05:30:10.318Z,13.90
2023-01-28T05:32:42.863Z,12.20
2023-01-28T05:35:16.929Z,14.30
2023-01-28T05:37:47.810Z,12.85
2023-01-28T05:40:19.111Z,12.80
2023-01-28T05:42:52.210Z,13.57
2023-01-28T05:45:24.334Z,13.20
2023-01-28T05:47:55.327Z,14.18
2023-01-28T05:50:28.731Z,14.00
2023-01-28T05:52:59.710Z,14.40
2023-01-28T05:55:30.506Z,13.70
2023-01-28T05:58:01.215Z,13.10
2023-01-28T06:00:31.978Z,14.55
2023-01-28T06:03:03.350Z,14.32
2023-01-28T06:05:38.767Z,12.93
2023-01-28T06:08:10.265Z,12.55
2023-01-28T06:10:41.004Z,11.82
2023-01-28T06:13:11.971Z,13.10
2023-01-28T06:15:42.758Z,14.07
2023-01-28T06:18:13.577Z,14.80
2023-01-28T06:20:49.406Z,15.35
2023-01-28T06:23:20.217Z,12.00
2023-01-28T06:25:56.665Z,11.52
2023-01-28T06:28:31.064Z,11.35
2023-01-28T06:31:02.102Z,12.13
2023-01-28T06:33:32.953Z,11.35
2023-01-28T06:36:10.295Z,10.65
2023-01-28T06:38:44.047Z,11.48
2023-01-28T06:41:14.949Z,10.48
2023-01-28T06:43:45.754Z,9.70
2023-01-28T06:46:16.499Z,10.93
2023-01-28T06:48:47.348Z,11.70
2023-01-28T06:51:20.647Z,12.15
2023-01-28T06:53:51.385Z,11.80
2023-01-28T06:56:25.353Z,11.20
2023-01-28T06:58:56.403Z,12.20
2023-01-28T07:01:27.429Z,11.43
2023-01-28T07:03:59.036Z,9.95
2023-01-28T07:06:32.383Z,11.35
2023-01-28T07:09:06.409Z,11.15
2023-01-28T07:11:42.550Z,8.45
2023-01-28T07:14:13.287Z,9.45
2023-01-28T07:16:44.028Z,8.38
2023-01-28T07:19:14.780Z,8.43
2023-01-28T07:21:48.193Z,8.00
2023-01-28T07:24:19.094Z,8.30
2023-01-28T07:26:53.370Z,8.57
2023-01-28T07:29:26.903Z,7.82
2023-01-28T07:31:57.760Z,9.40
2023-01-28T07:34:28.846Z,7.65
2023-01-28T07:37:03.319Z,8.30
2023-01-28T07:39:34.921Z,8.25
2023-01-28T07:42:05.912Z,7.55
2023-01-28T07:44:37.516Z,8.38
2023-01-28T07:47:09.708Z,7.13
2023-01-28T07:49:40.656Z,7.90
2023-01-28T07:52:15.308Z,7.85
2023-01-28T07:54:46.091Z,7.82
2023-01-28T07:57:23.149Z,8.65
2023-01-28T07:59:54.205Z,8.07
2023-01-28T08:02:25.043Z,8.27
2023-01-28T08:04:59.300Z,8.68
2023-01-28T08:07:33.804Z,8.45
2023-01-28T08:10:04.626Z,8.45
2023-01-28T08:12:35.424Z,8.63
2023-01-28T08:15:06.950Z,7.10
2023-01-28T08:17:39.948Z,7.90
2023-01-28T08:20:13.070Z,7.20
2023-01-28T08:22:46.525Z,7.20
2023-01-28T08:25:17.490Z,7.68
2023-01-28T08:27:48.403Z,7.78
2023-01-28T08:30:19.445Z,8.75
2023-01-28T08:32:50.152Z,8.98
2023-01-28T08:35:23.581Z,9.85
2023-01-28T08:37:57.350Z,9.00
2023-01-28T08:40:32.059Z,10.18
2023-01-28T08:43:03.204Z,8.32
2023-01-28T08:45:33.976Z,8.60
2023-01-28T08:48:07.385Z,9.00
2023-01-28T08:50:42.699Z,7.90
2023-01-28T08:53:17.545Z,8.57
2023-01-28T08:55:50.418Z,8.80
2023-01-28T08:58:21.581Z,9.13
2023-01-28T09:00:53.243Z,8.43
2023-01-28T09:03:24.007Z,9.07
2023-01-28T09:05:54.726Z,8.60
2023-01-28T09:08:28.021Z,10.45
2023-01-28T09:10:59.236Z,9.40
2023-01-28T09:13:30.929Z,11.88
2023-01-28T09:16:01.783Z,12.15
2023-01-28T09:18:32.443Z,13.20
2023-01-28T09:21:03.208Z,15.68
2023-01-28T09:23:37.641Z,16.70
2023-01-28T09:26:09.154Z,15.63
2023-01-28T09:28:40.279Z,20.30
2023-01-28T09:31:13.625Z,18.40
2023-01-28T09:33:44.691Z,19.02
2023-01-28T09:36:15.397Z,19.02
2023-01-28T09:38:48.672Z,18.70
2023-01-28T09:41:28.757Z,18.80
2023-01-28T09:44:13.654Z,18.05
2023-01-28T09:46:45.822Z,19.70
2023-01-28T09:49:23.241Z,15.57
2023-01-28T09:51:57.222Z,13.45
2023-01-28T09:54:44.291Z,12.95
2023-01-28T09:57:22.322Z,10.27
2023-01-28T09:59:53.290Z,10.05
2023-01-28T10:02:35.572Z,10.43
2023-01-28T10:05:19.045Z,11.07
2023-01-28T10:08:00.165Z,12.25
2023-01-28T10:10:45.288Z,14.20
2023-01-28T10:13:34.742Z,14.82
2023-01-28T10:16:19.447Z,14.52
2023-01-28T10:18:58.996Z,13.32
2023-01-28T10:21:37.088Z,13.00
2023-01-28T10:24:14.374Z,13.52
2023-01-28T10:26:48.735Z,16.33
2023-01-28T10:29:21.899Z,18.92
2023-01-28T10:31:56.055Z,17.15
2023-01-28T10:34:31.097Z,19.48
2023-01-28T10:37:02.004Z,20.90
2023-01-28T10:39:33.035Z,19.35
2023-01-28T10:42:18.875Z,18.65
2023-01-28T10:44:52.422Z,17.40
2023-01-28T10:47:31.972Z,18.30
2023-01-28T10:50:07.543Z,16.60
2023-01-28T10:52:38.420Z,17.15
2023-01-28T10:55:10.193Z,19.73
2023-01-28T10:57:45.446Z,21.42
2023-01-28T11:00:28.344Z,21.20
2023-01-28T11:03:00.201Z,18.73
2023-01-28T11:05:34.480Z,19.90
2023-01-28T11:08:15.354Z,21.00
2023-01-28T11:10:49.450Z,18.40
2023-01-28T11:13:24.634Z,16.63
2023-01-28T11:15:58.456Z,16.75
2023-01-28T11:18:34.635Z,14.52
2023-01-28T11:21:08.986Z,14.27
2023-01-28T11:23:52.127Z,13.27
2023-01-28T11:26:26.863Z,13.23
2023-01-28T11:29:00.342Z,12.25
2023-01-28T11:31:31.736Z,11.87
2023-01-28T11:37:05.791Z,11.93
2023-01-28T11:39:38.370Z,11.88
2023-01-28T11:42:18.858Z,11.45
2023-01-28T11:44:52.874Z,11.15
2023-01-28T11:47:43.798Z,10.57
2023-01-28T11:50:27.128Z,10.73
2023-01-28T11:53:16.780Z,12.45
2023-01-28T11:56:02.271Z,12.93
2023-01-28T11:58:46.422Z,13.50
2023-01-28T12:01:31.321Z,13.20
2023-01-28T12:04:21.092Z,12.85
2023-01-28T12:07:18.261Z,14.70
2023-01-28T12:09:56.917Z,14.57
2023-01-28T12:12:48.335Z,13.23
2023-01-28T12:15:49.188Z,10.68
2023-01-28T12:18:37.396Z,11.48
2023-01-28T12:21:10.823Z,12.40
2023-01-28T12:24:01.774Z,12.70
2023-01-28T12:26:44.273Z,14.75
2023-01-28T12:29:29.935Z,15.43
2023-01-28T12:32:12.697Z,15.10
2023-01-28T12:35:04.392Z,16.58
2023-01-28T12:37:48.180Z,17.60
2023-01-28T12:40:41.606Z,16.50
2023-01-28T12:43:18.536Z,15.83
2023-01-28T12:45:55.185Z,14.80
2023-01-28T12:48:30.881Z,16.17
2023-01-28T12:51:08.051Z,14.90
2023-01-28T12:53:45.370Z,15.40
2023-01-28T12:56:20.801Z,16.33
2023-01-28T12:58:57.056Z,16.00
2023-01-28T13:01:47.984Z,16.47
2023-01-28T13:04:27.642Z,14.13
2023-01-28T13:07:04.603Z,15.85
2023-01-28T13:09:39.736Z,15.70
2023-01-28T13:12:14.567Z,14.70
2023-01-28T13:14:47.861Z,14.95
2023-01-28T13:17:29.891Z,15.05
2023-01-28T13:20:01.726Z,14.63
2023-01-28T13:22:39.601Z,15.13
2023-01-28T13:25:29.828Z,15.48
2023-01-28T13:28:04.604Z,14.50
2023-01-28T13:30:37.315Z,14.18
2023-01-28T13:33:10.076Z,16.02
2023-01-28T13:35:43.944Z,14.87
2023-01-28T13:38:21.993Z,15.52
2023-01-28T13:41:00.640Z,16.53
2023-01-28T13:43:40.149Z,15.67
2023-01-28T13:46:13.433Z,15.30
2023-01-28T13:48:49.445Z,15.00
2023-01-28T13:51:26.175Z,15.50
2023-01-28T13:54:03.536Z,16.48
2023-01-28T13:56:43.523Z,16.38
2023-01-28T13:59:30.660Z,17.77
2023-01-28T14:02:38.942Z,17.23
2023-01-28T14:05:36.563Z,18.70
2023-01-28T14:08:42.599Z,17.92
2023-01-28T14:11:34.102Z,16.47
2023-01-28T14:14:33.233Z,15.02
2023-01-28T14:17:09.565Z,15.70
2023-01-28T14:19:44.645Z,14.68
2023-01-28T14:22:21.453Z,14.63
2023-01-28T14:24:52.775Z,15.95
2023-01-28T14:27:29.634Z,15.83
2023-01-28T14:30:11.212Z,16.25
2023-01-28T14:32:48.986Z,17.77
2023-01-28T14:35:22.990Z,14.90
2023-01-28T14:37:55.036Z,15.93
2023-01-28T14:40:26.606Z,17.33
2023-01-28T14:43:00.812Z,18.38
2023-01-28T14:45:48.047Z,18.38
2023-01-28T14:48:28.177Z,16.42
2023-01-28T14:51:09.815Z,17.75
2023-01-28T14:54:00.030Z,17.50
2023-01-28T14:56:42.907Z,18.63
2023-01-28T14:59:23.477Z,18.58
2023-01-28T15:01:59.678Z,15.55
2023-01-28T15:04:33.006Z,17.42
2023-01-28T15:07:20.218Z,17.83
2023-01-28T15:10:01.812Z,16.77
2023-01-28T15:12:37.945Z,17.80
2023-01-28T15:15:26.849Z,17.17
2023-01-28T15:17:59.043Z,17.33
2023-01-28T15:20:29.900Z,18.15
2023-01-28T15:23:01.354Z,19.53
2023-01-28T15:25:32.829Z,19.55
2023-01-28T15:28:04.865Z,19.50
2023-01-28T15:30:40.263Z,22.17
2023-01-28T15:33:17.531Z,21.33
2023-01-28T15:35:52.443Z,21.77
2023-01-28T15:38:24.316Z,19.90
2023-01-28T15:40:58.905Z,20.67
2023-01-28T15:43:33.874Z,21.45
2023-01-28T15:46:12.783Z,21.27
2023-01-28T15:48:47.462Z,19.63
2023-01-28T15:51:26.248Z,19.10
2023-01-28T15:54:01.742Z,19.83
2023-01-28T15:56:33.338Z,23.63
2023-01-28T15:59:22.194Z,23.42
2023-01-28T16:02:17.284Z,23.10
2023-01-28T16:05:00.517Z,21.60
2023-01-28T16:07:33.386Z,22.85
2023-01-28T16:10:06.244Z,23.52
2023-01-28T16:12:37.035Z,23.85
2023-01-28T16:15:09.012Z,24.10
2023-01-28T16:17:44.895Z,24.10
2023-01-28T16:20:25.503Z,23.50
2023-01-28T16:22:59.747Z,23.08
2023-01-28T16:25:33.541Z,21.65
2023-01-28T16:28:05.827Z,21.17
2023-01-28T16:30:36.906Z,21.70
2023-01-28T16:33:22.018Z,22.25
2023-01-28T16:36:06.514Z,21.52
2023-01-28T16:38:39.432Z,21.23
2023-01-28T16:41:16.371Z,20.25
2023-01-28T16:43:47.076Z,19.75
2023-01-28T16:46:18.257Z,20.50
2023-01-28T16:48:51.586Z,20.45
2023-01-28T16:51:22.647Z,19.67
2023-01-28T16:53:56.717Z,19.80
2023-01-28T16:56:44.422Z,19.63
2023-01-28T16:59:18.037Z,18.60
2023-01-28T17:01:53.753Z,18.20
2023-01-28T17:04:27.144Z,20.48
2023-01-28T17:07:00.151Z,21.17
2023-01-28T17:09:35.165Z,20.52
2023-01-28T17:12:09.496Z,19.30
2023-01-28T17:14:40.192Z,21.33
2023-01-28T17:17:10.970Z,21.70
2023-01-28T17:19:44.442Z,25.33
2023-01-28T17:22:15.191Z,29.00
2023-01-28T17:24:46.448Z,32.35
2023-01-28T17:27:23.153Z,36.45
2023-01-28T17:29:55.163Z,44.40
2023-01-28T17:32:28.122Z,47.30
2023-01-28T17:35:01.534Z,50.00
2023-01-28T17:37:32.339Z,51.40
2023-01-28T17:40:03.305Z,50.35
2023-01-28T17:42:34.025Z,50.80
2023-01-28T17:45:05.056Z,46.78
2023-01-28T17:47:36.158Z,47.05
2023-01-28T17:50:13.163Z,44.22
2023-01-28T17:52:46.707Z,43.38
2023-01-28T17:55:20.065Z,43.28
2023-01-28T17:57:51.036Z,42.53
2023-01-28T18:00:23.290Z,40.80
2023-01-28T18:02:56.900Z,42.13
2023-01-28T18:05:30.444Z,40.08
2023-01-28T18:08:01.176Z,38.05
2023-01-28T18:10:31.953Z,37.88
2023-01-28T18:13:03.122Z,34.75
2023-01-28T18:15:36.715Z,35.05
2023-01-28T18:18:07.549Z,33.75
2023-01-28T18:20:41.365Z,32.78
2023-01-28T18:23:12.161Z,33.95
2023-01-28T18:25:42.949Z,34.00
2023-01-28T18:28:13.706Z,32.28
2023-01-28T18:30:44.733Z,34.42
2023-01-28T18:33:15.522Z,35.00
2023-01-28T18:35:52.425Z,34.05
2023-01-28T18:38:23.081Z,33.25
2023-01-28T18:40:57.993Z,33.08
2023-01-28T18:43:32.526Z,34.63
2023-01-28T18:46:03.261Z,33.45
2023-01-28T18:48:37.168Z,33.33
2023-01-28T18:51:27.605Z,33.50
2023-01-28T18:54:02.306Z,32.63
2023-01-28T18:56:33.708Z,30.65
2023-01-28T18:59:09.962Z,33.38
2023-01-28T19:01:42.558Z,33.50
2023-01-28T19:04:14.187Z,33.85
2023-01-28T19:06:50.848Z,34.20
2023-01-28T19:09:21.720Z,34.72
2023-01-28T19:11:54.413Z,38.35
2023-01-28T19:14:25.266Z,37.85
2023-01-28T19:16:56.268Z,38.70
2023-01-28T19:19:27.284Z,38.08
2023-01-28T19:22:00.854Z,36.40
2023-01-28T19:24:31.745Z,36.60
2023-01-28T19:27:02.481Z,37.60
2023-01-28T19:29:33.405Z,35.97
2023-01-28T19:32:04.620Z,34.20
2023-01-28T19:34:35.633Z,33.38
2023-01-28T19:37:09.273Z,32.05
2023-01-28T19:39:43.083Z,32.33
2023-01-28T19:42:13.821Z,30.25
2023-01-28T19:44:44.539Z,29.05
2023-01-28T19:47:15.699Z,29.13
2023-01-28T19:49:46.574Z,27.48
2023-01-28T19:52:22.559Z,28.58
2023-01-28T19:54:53.548Z,28.27
2023-01-28T19:57:24.352Z,28.02
2023-01-28T19:59:55.267Z,27.90
2023-01-28T20:02:26.013Z,28.95
2023-01-28T20:05:00.900Z,28.60
2023-01-28T20:07:34.636Z,30.65
2023-01-28T20:10:05.491Z,28.42
2023-01-28T20:12:38.311Z,28.05
2023-01-28T20:15:10.642Z,29.10
2023-01-28T20:17:41.568Z,28.05
2023-01-28T20:20:14.121Z,27.63
2023-01-28T20:22:47.629Z,27.40
2023-01-28T20:25:18.981Z,26.05
2023-01-28T20:27:50.807Z,28.13
2023-01-28T20:30:26.217Z,27.33
2023-01-28T20:32:57.217Z,27.80
2023-01-28T20:35:28.099Z,28.02
2023-01-28T20:38:04.199Z,29.02
2023-01-28T20:40:35.427Z,30.02
2023-01-28T20:43:06.305Z,29.70
2023-01-28T20:45:37.612Z,30.77
2023-01-28T20:48:09.826Z,29.85
2023-01-28T20:50:41.012Z,31.70
2023-01-28T20:53:16.643Z,32.90
2023-01-28T20:55:47.418Z,29.70
2023-01-28T20:58:18.557Z,31.50
2023-01-28T21:00:49.268Z,32.75
2023-01-28T21:03:20.474Z,31.75
2023-01-28T21:05:51.526Z,32.55
2023-01-28T21:08:26.180Z,30.95
2023-01-28T21:10:56.997Z,29.77
2023-01-28T21:13:28.225Z,29.73
2023-01-28T21:16:00.496Z,30.95
2023-01-28T21:18:31.497Z,29.55
2023-01-28T21:21:06.422Z,29.50
2023-01-28T21:23:40.118Z,29.27
2023-01-28T21:26:10.999Z,33.85
2023-01-28T21:28:43.854Z,34.78
2023-01-28T21:31:18.551Z,33.22
2023-01-28T21:33:51.698Z,33.53
2023-01-28T21:36:22.491Z,32.83
2023-01-28T21:39:00.594Z,33.45
2023-01-28T21:41:33.845Z,34.05
2023-01-28T21:44:05.264Z,34.13
2023-01-28T21:46:36.746Z,32.20
2023-01-28T21:49:08.109Z,33.55
2023-01-28T21:51:39.519Z,32.10
2023-01-28T21:54:18.848Z,32.88
2023-01-28T21:56:50.633Z,33.20
2023-01-28T21:59:32.660Z,30.65
2023-01-28T22:02:04.904Z,32.15
2023-01-28T22:04:37.355Z,30.33
2023-01-28T22:07:10.348Z,29.90
2023-01-28T22:09:46.146Z,29.08
2023-01-28T22:12:17.788Z,29.10
2023-01-28T22:14:48.722Z,29.83
2023-01-28T22:17:19.927Z,27.25
2023-01-28T22:19:53.471Z,28.42
2023-01-28T22:22:24.263Z,30.23
2023-01-28T22:24:57.816Z,28.50
2023-01-28T22:27:28.954Z,28.38
2023-01-28T22:30:01.000Z,28.90
2023-01-28T22:32:31.743Z,26.90
2023-01-28T22:35:05.025Z,28.17
2023-01-28T22:37:35.991Z,26.67
2023-01-28T22:40:13.504Z,27.58
2023-01-28T22:42:44.421Z,27.08
2023-01-28T22:45:21.047Z,27.25
2023-01-28T22:47:51.803Z,27.88
2023-01-28T22:50:22.981Z,26.67
2023-01-28T22:52:54.963Z,28.70
2023-01-28T22:55:28.538Z,27.00
2023-01-28T22:58:02.373Z,25.70
2023-01-28T23:00:33.113Z,27.65
2023-01-28T23:03:03.916Z,26.20
2023-01-28T23:05:34.728Z,24.73
2023-01-28T23:08:12.668Z,26.70
2023-01-28T23:10:50.101Z,25.10
2023-01-28T23:13:22.477Z,26.70
2023-01-28T23:16:07.137Z,30.23
2023-01-28T23:18:51.013Z,27.50
2023-01-28T23:21:36.747Z,27.25
2023-01-28T23:24:24.324Z,28.42
2023-01-28T23:26:59.836Z,28.90
2023-01-28T23:29:31.937Z,28.02
2023-01-28T23:32:05.462Z,27.83
2023-01-28T23:34:38.970Z,29.92
2023-01-28T23:37:12.865Z,26.52
2023-01-28T23:39:43.999Z,29.63
2023-01-28T23:42:23.685Z,27.30
2023-01-28T23:44:54.638Z,27.88
2023-01-28T23:47:25.723Z,28.80
2023-01-28T23:49:56.511Z,27.90
2023-01-28T23:52:27.832Z,27.30
2023-01-28T23:54:58.843Z,26.98
2023-01-28T23:57:32.090Z,26.85
